Terminal Aerodrome Forecast
Issued by NWS

Home | Current Version | Previous Version | Text Only | Print | Product List | Glossary On
Versions: 1 2 3 4 5 6 7 8 9 10 11 12 13 14 15 16 17 18 19 20 21 22 23
000
FTPQ31 PGUM 032331
TAFGUM
TAF

TAF
PTYA 032331Z 0400/0424 03007KT P6SM VCSH SCT016 SCT035 BKN120
     FM040400 01014KT P6SM VCSH SCT015 SCT040 OVC100
     FM040800 35015G24KT P6SM VCSH SCT015 BKN040 OVC100
      TEMPO 0408/0412 03018G28KT 3SM SHRA BKN015 OVC050
     FM041200 02018G28KT 6SM -RA SCT015 BKN050 OVC090
      TEMPO 0412/0416 36020G35KT 2SM +SHRA BKN015 OVC040=

USA.gov is the U.S. government's official web portal to all federal, state and local government web resources and services.